Terminal Aerodrome Forecast
Issued by NWS

Home | Current Version | Previous Version | Text Only | Print | Product List | Glossary Off
Versions: 1 2 3 4 5 6 7 8 9 10 11 12 13

722
FTUS43 KLSX 191734
TAFUIN
TAF
KUIN 191734Z 1918/2018 19004KT P6SM SKC
     FM200800 16008KT 5SM BR BKN040
     FM201100 15008KT 4SM BR BKN015
     FM201400 15009KT P6SM OVC015
     FM201600 16010KT P6SM OVC020=

USA.gov is the U.S. government's official web portal to all federal, state and local government web resources and services.